sensor_id;sensor_type;location;lat;lon;timestamp;P1;durP1;ratioP1;P2;durP2;ratioP2
75746;SDS011;64363;52.198;21.020;2022-10-16T00:01:36;16.05;;;9.35;;
75746;SDS011;64363;52.198;21.020;2022-10-16T00:04:02;17.60;;;9.95;;
75746;SDS011;64363;52.198;21.020;2022-10-16T00:06:28;16.02;;;10.40;;
75746;SDS011;64363;52.198;21.020;2022-10-16T00:08:54;15.52;;;10.00;;
75746;SDS011;64363;52.198;21.020;2022-10-16T00:11:22;16.55;;;9.68;;
75746;SDS011;64363;52.198;21.020;2022-10-16T00:13:50;15.88;;;10.15;;
75746;SDS011;64363;52.198;21.020;2022-10-16T00:16:19;15.65;;;9.85;;
75746;SDS011;64363;52.198;21.020;2022-10-16T00:18:45;12.75;;;9.20;;
75746;SDS011;64363;52.198;21.020;2022-10-16T00:21:13;16.67;;;11.07;;
75746;SDS011;64363;52.198;21.020;2022-10-16T00:23:43;16.67;;;10.32;;
75746;SDS011;64363;52.198;21.020;2022-10-16T00:26:14;16.02;;;8.98;;
75746;SDS011;64363;52.198;21.020;2022-10-16T00:28:45;16.00;;;10.07;;
75746;SDS011;64363;52.198;21.020;2022-10-16T00:31:12;22.30;;;11.10;;
75746;SDS011;64363;52.198;21.020;2022-10-16T00:33:38;15.35;;;9.55;;
75746;SDS011;64363;52.198;21.020;2022-10-16T00:36:06;15.77;;;10.90;;
75746;SDS011;64363;52.198;21.020;2022-10-16T00:38:34;19.90;;;12.13;;
75746;SDS011;64363;52.198;21.020;2022-10-16T00:41:00;16.90;;;11.15;;
75746;SDS011;64363;52.198;21.020;2022-10-16T00:46:15;18.48;;;12.57;;
75746;SDS011;64363;52.198;21.020;2022-10-16T00:48:41;16.65;;;12.20;;
75746;SDS011;64363;52.198;21.020;2022-10-16T00:51:11;22.35;;;11.82;;
75746;SDS011;64363;52.198;21.020;2022-10-16T00:53:36;18.27;;;11.60;;
75746;SDS011;64363;52.198;21.020;2022-10-16T00:56:02;19.25;;;11.43;;
75746;SDS011;64363;52.198;21.020;2022-10-16T00:58:28;19.45;;;12.68;;
75746;SDS011;64363;52.198;21.020;2022-10-16T01:00:54;20.30;;;13.02;;
75746;SDS011;64363;52.198;21.020;2022-10-16T01:03:24;21.25;;;12.45;;
75746;SDS011;64363;52.198;21.020;2022-10-16T01:14:47;18.83;;;12.70;;
75746;SDS011;64363;52.198;21.020;2022-10-16T01:17:21;19.33;;;13.25;;
75746;SDS011;64363;52.198;21.020;2022-10-16T01:25:49;19.25;;;12.05;;
75746;SDS011;64363;52.198;21.020;2022-10-16T01:28:12;18.83;;;11.95;;
75746;SDS011;64363;52.198;21.020;2022-10-16T01:30:40;21.27;;;12.23;;
75746;SDS011;64363;52.198;21.020;2022-10-16T01:33:10;19.70;;;11.73;;
75746;SDS011;64363;52.198;21.020;2022-10-16T01:35:43;18.58;;;11.88;;
75746;SDS011;64363;52.198;21.020;2022-10-16T01:38:17;19.48;;;12.15;;
75746;SDS011;64363;52.198;21.020;2022-10-16T01:40:52;32.22;;;19.13;;
75746;SDS011;64363;52.198;21.020;2022-10-16T01:43:28;18.10;;;12.27;;
75746;SDS011;64363;52.198;21.020;2022-10-16T01:46:01;20.23;;;12.25;;
75746;SDS011;64363;52.198;21.020;2022-10-16T01:48:27;20.25;;;12.38;;
75746;SDS011;64363;52.198;21.020;2022-10-16T01:51:00;28.08;;;17.73;;
75746;SDS011;64363;52.198;21.020;2022-10-16T01:53:30;17.90;;;11.88;;
75746;SDS011;64363;52.198;21.020;2022-10-16T01:55:57;19.70;;;12.27;;
75746;SDS011;64363;52.198;21.020;2022-10-16T01:58:26;22.23;;;12.80;;
75746;SDS011;64363;52.198;21.020;2022-10-16T02:00:55;20.90;;;13.43;;
75746;SDS011;64363;52.198;21.020;2022-10-16T02:03:22;21.50;;;13.35;;
75746;SDS011;64363;52.198;21.020;2022-10-16T02:05:51;20.65;;;12.90;;
75746;SDS011;64363;52.198;21.020;2022-10-16T02:08:19;20.98;;;13.73;;
75746;SDS011;64363;52.198;21.020;2022-10-16T02:10:47;19.52;;;12.35;;
75746;SDS011;64363;52.198;21.020;2022-10-16T02:13:21;22.52;;;13.30;;
75746;SDS011;64363;52.198;21.020;2022-10-16T02:15:53;22.08;;;12.90;;
75746;SDS011;64363;52.198;21.020;2022-10-16T02:18:18;24.45;;;13.77;;
75746;SDS011;64363;52.198;21.020;2022-10-16T02:23:18;21.20;;;13.32;;
75746;SDS011;64363;52.198;21.020;2022-10-16T02:25:54;19.15;;;12.55;;
75746;SDS011;64363;52.198;21.020;2022-10-16T02:28:25;21.08;;;13.45;;
75746;SDS011;64363;52.198;21.020;2022-10-16T02:30:58;20.63;;;12.85;;
75746;SDS011;64363;52.198;21.020;2022-10-16T02:33:28;19.08;;;12.63;;
75746;SDS011;64363;52.198;21.020;2022-10-16T02:35:56;24.45;;;13.65;;
75746;SDS011;64363;52.198;21.020;2022-10-16T02:38:23;19.52;;;12.90;;
75746;SDS011;64363;52.198;21.020;2022-10-16T02:40:49;21.50;;;12.63;;
75746;SDS011;64363;52.198;21.020;2022-10-16T02:43:15;18.42;;;12.30;;
75746;SDS011;64363;52.198;21.020;2022-10-16T02:45:41;19.48;;;12.75;;
75746;SDS011;64363;52.198;21.020;2022-10-16T02:48:07;22.00;;;12.55;;
75746;SDS011;64363;52.198;21.020;2022-10-16T02:50:33;18.92;;;13.18;;
75746;SDS011;64363;52.198;21.020;2022-10-16T02:52:59;20.92;;;14.25;;
75746;SDS011;64363;52.198;21.020;2022-10-16T02:55:25;22.77;;;13.95;;
75746;SDS011;64363;52.198;21.020;2022-10-16T02:57:51;20.35;;;13.52;;
75746;SDS011;64363;52.198;21.020;2022-10-16T03:00:17;24.42;;;13.50;;
75746;SDS011;64363;52.198;21.020;2022-10-16T03:02:43;20.65;;;13.15;;
75746;SDS011;64363;52.198;21.020;2022-10-16T03:05:09;22.25;;;13.85;;
75746;SDS011;64363;52.198;21.020;2022-10-16T03:07:36;23.10;;;13.93;;
75746;SDS011;64363;52.198;21.020;2022-10-16T03:10:02;21.73;;;13.88;;
75746;SDS011;64363;52.198;21.020;2022-10-16T03:12:28;23.77;;;14.52;;
75746;SDS011;64363;52.198;21.020;2022-10-16T03:14:54;22.98;;;14.20;;
75746;SDS011;64363;52.198;21.020;2022-10-16T03:17:22;24.08;;;14.55;;
75746;SDS011;64363;52.198;21.020;2022-10-16T03:19:48;22.42;;;13.93;;
75746;SDS011;64363;52.198;21.020;2022-10-16T03:22:14;20.17;;;13.35;;
75746;SDS011;64363;52.198;21.020;2022-10-16T03:24:40;20.85;;;14.20;;
75746;SDS011;64363;52.198;21.020;2022-10-16T03:27:06;22.00;;;14.70;;
75746;SDS011;64363;52.198;21.020;2022-10-16T03:29:32;19.35;;;13.13;;
75746;SDS011;64363;52.198;21.020;2022-10-16T03:31:58;22.80;;;13.68;;
75746;SDS011;64363;52.198;21.020;2022-10-16T03:34:24;19.95;;;13.60;;
75746;SDS011;64363;52.198;21.020;2022-10-16T03:36:51;21.10;;;13.65;;
75746;SDS011;64363;52.198;21.020;2022-10-16T03:39:17;22.23;;;14.18;;
75746;SDS011;64363;52.198;21.020;2022-10-16T03:41:43;20.25;;;13.45;;
75746;SDS011;64363;52.198;21.020;2022-10-16T03:44:09;22.40;;;14.65;;
75746;SDS011;64363;52.198;21.020;2022-10-16T03:46:35;21.85;;;12.75;;
75746;SDS011;64363;52.198;21.020;2022-10-16T03:49:00;21.45;;;14.23;;
75746;SDS011;64363;52.198;21.020;2022-10-16T03:51:26;21.23;;;13.57;;
75746;SDS011;64363;52.198;21.020;2022-10-16T03:53:52;22.52;;;13.57;;
75746;SDS011;64363;52.198;21.020;2022-10-16T03:56:18;19.90;;;13.35;;
75746;SDS011;64363;52.198;21.020;2022-10-16T03:58:44;25.55;;;13.10;;
75746;SDS011;64363;52.198;21.020;2022-10-16T04:01:09;21.02;;;11.60;;
75746;SDS011;64363;52.198;21.020;2022-10-16T04:03:35;18.65;;;13.32;;
75746;SDS011;64363;52.198;21.020;2022-10-16T04:06:01;23.25;;;13.63;;
75746;SDS011;64363;52.198;21.020;2022-10-16T04:08:27;19.45;;;13.27;;
75746;SDS011;64363;52.198;21.020;2022-10-16T04:10:53;17.88;;;12.55;;
75746;SDS011;64363;52.198;21.020;2022-10-16T04:13:18;20.00;;;12.00;;
75746;SDS011;64363;52.198;21.020;2022-10-16T04:15:44;19.15;;;13.07;;
75746;SDS011;64363;52.198;21.020;2022-10-16T04:18:10;19.58;;;13.07;;
75746;SDS011;64363;52.198;21.020;2022-10-16T04:20:37;20.58;;;12.02;;
75746;SDS011;64363;52.198;21.020;2022-10-16T04:23:03;20.98;;;13.15;;
75746;SDS011;64363;52.198;21.020;2022-10-16T04:25:29;17.30;;;12.23;;
75746;SDS011;64363;52.198;21.020;2022-10-16T04:27:55;20.70;;;13.10;;
75746;SDS011;64363;52.198;21.020;2022-10-16T04:30:22;19.17;;;13.07;;
75746;SDS011;64363;52.198;21.020;2022-10-16T04:32:48;18.80;;;12.60;;
75746;SDS011;64363;52.198;21.020;2022-10-16T04:35:15;20.30;;;13.45;;
75746;SDS011;64363;52.198;21.020;2022-10-16T04:37:44;16.95;;;11.68;;
75746;SDS011;64363;52.198;21.020;2022-10-16T04:40:10;18.00;;;13.05;;
75746;SDS011;64363;52.198;21.020;2022-10-16T04:42:36;18.27;;;13.27;;
75746;SDS011;64363;52.198;21.020;2022-10-16T04:45:02;18.10;;;12.00;;
75746;SDS011;64363;52.198;21.020;2022-10-16T04:47:28;17.35;;;12.88;;
75746;SDS011;64363;52.198;21.020;2022-10-16T04:49:54;22.17;;;12.43;;
75746;SDS011;64363;52.198;21.020;2022-10-16T04:52:20;19.40;;;11.82;;
75746;SDS011;64363;52.198;21.020;2022-10-16T04:54:46;21.02;;;13.30;;
75746;SDS011;64363;52.198;21.020;2022-10-16T04:57:12;17.10;;;12.27;;
75746;SDS011;64363;52.198;21.020;2022-10-16T04:59:38;20.77;;;11.95;;
75746;SDS011;64363;52.198;21.020;2022-10-16T05:02:04;18.90;;;12.35;;
75746;SDS011;64363;52.198;21.020;2022-10-16T05:04:29;17.23;;;12.00;;
75746;SDS011;64363;52.198;21.020;2022-10-16T05:06:55;19.30;;;11.65;;
75746;SDS011;64363;52.198;21.020;2022-10-16T05:09:21;19.70;;;13.40;;
75746;SDS011;64363;52.198;21.020;2022-10-16T05:11:47;20.83;;;12.82;;
75746;SDS011;64363;52.198;21.020;2022-10-16T05:14:13;23.25;;;13.05;;
75746;SDS011;64363;52.198;21.020;2022-10-16T05:16:38;21.73;;;13.35;;
75746;SDS011;64363;52.198;21.020;2022-10-16T05:19:04;17.90;;;11.40;;
75746;SDS011;64363;52.198;21.020;2022-10-16T05:21:30;20.90;;;12.07;;
75746;SDS011;64363;52.198;21.020;2022-10-16T05:23:55;19.02;;;11.68;;
75746;SDS011;64363;52.198;21.020;2022-10-16T05:26:21;19.88;;;13.57;;
75746;SDS011;64363;52.198;21.020;2022-10-16T05:28:47;18.63;;;12.88;;
75746;SDS011;64363;52.198;21.020;2022-10-16T05:31:14;20.73;;;13.38;;
75746;SDS011;64363;52.198;21.020;2022-10-16T05:33:40;17.30;;;12.23;;
75746;SDS011;64363;52.198;21.020;2022-10-16T05:36:07;20.83;;;12.25;;
75746;SDS011;64363;52.198;21.020;2022-10-16T05:38:35;19.98;;;13.27;;
75746;SDS011;64363;52.198;21.020;2022-10-16T05:41:01;19.17;;;12.02;;
75746;SDS011;64363;52.198;21.020;2022-10-16T05:43:28;18.02;;;12.70;;
75746;SDS011;64363;52.198;21.020;2022-10-16T05:45:55;18.30;;;12.20;;
75746;SDS011;64363;52.198;21.020;2022-10-16T05:48:22;18.77;;;12.30;;
75746;SDS011;64363;52.198;21.020;2022-10-16T05:50:48;19.05;;;11.75;;
75746;SDS011;64363;52.198;21.020;2022-10-16T05:53:21;17.83;;;13.15;;
75746;SDS011;64363;52.198;21.020;2022-10-16T05:55:54;18.50;;;12.73;;
75746;SDS011;64363;52.198;21.020;2022-10-16T05:58:21;20.77;;;13.73;;
75746;SDS011;64363;52.198;21.020;2022-10-16T06:00:54;18.75;;;13.63;;
75746;SDS011;64363;52.198;21.020;2022-10-16T06:03:20;20.17;;;12.50;;
75746;SDS011;64363;52.198;21.020;2022-10-16T06:05:46;17.85;;;12.00;;
75746;SDS011;64363;52.198;21.020;2022-10-16T06:08:12;20.23;;;12.52;;
75746;SDS011;64363;52.198;21.020;2022-10-16T06:10:37;19.80;;;12.02;;
75746;SDS011;64363;52.198;21.020;2022-10-16T06:13:03;20.33;;;12.52;;
75746;SDS011;64363;52.198;21.020;2022-10-16T06:15:29;19.20;;;11.73;;
75746;SDS011;64363;52.198;21.020;2022-10-16T06:17:54;18.40;;;12.35;;
75746;SDS011;64363;52.198;21.020;2022-10-16T06:20:20;19.50;;;12.93;;
75746;SDS011;64363;52.198;21.020;2022-10-16T06:22:46;18.45;;;12.27;;
75746;SDS011;64363;52.198;21.020;2022-10-16T06:25:11;19.02;;;12.82;;
75746;SDS011;64363;52.198;21.020;2022-10-16T06:27:39;21.45;;;11.80;;
75746;SDS011;64363;52.198;21.020;2022-10-16T06:30:06;18.45;;;12.10;;
75746;SDS011;64363;52.198;21.020;2022-10-16T06:32:32;20.08;;;12.55;;
75746;SDS011;64363;52.198;21.020;2022-10-16T06:34:58;26.48;;;19.05;;
75746;SDS011;64363;52.198;21.020;2022-10-16T06:37:23;17.48;;;11.85;;
75746;SDS011;64363;52.198;21.020;2022-10-16T06:39:50;17.58;;;11.60;;
75746;SDS011;64363;52.198;21.020;2022-10-16T06:42:17;19.30;;;12.75;;
75746;SDS011;64363;52.198;21.020;2022-10-16T06:44:44;16.17;;;11.75;;
75746;SDS011;64363;52.198;21.020;2022-10-16T06:47:10;16.98;;;11.43;;
75746;SDS011;64363;52.198;21.020;2022-10-16T06:49:36;16.70;;;12.40;;
75746;SDS011;64363;52.198;21.020;2022-10-16T06:52:02;17.95;;;12.13;;
75746;SDS011;64363;52.198;21.020;2022-10-16T06:54:28;17.23;;;12.88;;
75746;SDS011;64363;52.198;21.020;2022-10-16T06:56:54;18.20;;;10.77;;
75746;SDS011;64363;52.198;21.020;2022-10-16T06:59:20;17.05;;;11.38;;
75746;SDS011;64363;52.198;21.020;2022-10-16T07:01:46;18.23;;;11.85;;
75746;SDS011;64363;52.198;21.020;2022-10-16T07:04:12;21.40;;;12.70;;
75746;SDS011;64363;52.198;21.020;2022-10-16T07:06:38;17.27;;;11.35;;
75746;SDS011;64363;52.198;21.020;2022-10-16T07:09:04;20.35;;;12.18;;
75746;SDS011;64363;52.198;21.020;2022-10-16T07:11:32;22.80;;;11.85;;
75746;SDS011;64363;52.198;21.020;2022-10-16T07:13:58;20.38;;;12.23;;
75746;SDS011;64363;52.198;21.020;2022-10-16T07:16:28;17.42;;;11.43;;
75746;SDS011;64363;52.198;21.020;2022-10-16T07:18:55;17.50;;;11.60;;
75746;SDS011;64363;52.198;21.020;2022-10-16T07:21:26;16.15;;;11.68;;
75746;SDS011;64363;52.198;21.020;2022-10-16T07:23:57;18.25;;;11.68;;
75746;SDS011;64363;52.198;21.020;2022-10-16T07:26:25;17.85;;;11.55;;
75746;SDS011;64363;52.198;21.020;2022-10-16T07:28:52;16.58;;;11.05;;
75746;SDS011;64363;52.198;21.020;2022-10-16T07:31:19;16.10;;;10.98;;
75746;SDS011;64363;52.198;21.020;2022-10-16T07:33:46;18.50;;;12.05;;
75746;SDS011;64363;52.198;21.020;2022-10-16T07:36:14;17.42;;;10.90;;
75746;SDS011;64363;52.198;21.020;2022-10-16T07:38:41;17.73;;;12.10;;
75746;SDS011;64363;52.198;21.020;2022-10-16T07:41:09;18.27;;;13.07;;
75746;SDS011;64363;52.198;21.020;2022-10-16T07:43:45;16.60;;;11.40;;
75746;SDS011;64363;52.198;21.020;2022-10-16T07:46:15;19.33;;;11.77;;
75746;SDS011;64363;52.198;21.020;2022-10-16T07:48:42;18.65;;;11.52;;
75746;SDS011;64363;52.198;21.020;2022-10-16T07:51:11;18.10;;;11.80;;
75746;SDS011;64363;52.198;21.020;2022-10-16T07:53:37;15.90;;;11.40;;
75746;SDS011;64363;52.198;21.020;2022-10-16T07:56:04;18.92;;;11.60;;
75746;SDS011;64363;52.198;21.020;2022-10-16T07:58:31;18.45;;;11.23;;
75746;SDS011;64363;52.198;21.020;2022-10-16T08:00:58;17.83;;;11.20;;
75746;SDS011;64363;52.198;21.020;2022-10-16T08:03:27;18.80;;;11.65;;
75746;SDS011;64363;52.198;21.020;2022-10-16T08:05:53;19.25;;;11.85;;
75746;SDS011;64363;52.198;21.020;2022-10-16T08:08:19;20.48;;;11.10;;
75746;SDS011;64363;52.198;21.020;2022-10-16T08:10:45;15.75;;;10.90;;
75746;SDS011;64363;52.198;21.020;2022-10-16T08:13:11;26.42;;;11.85;;
75746;SDS011;64363;52.198;21.020;2022-10-16T08:15:38;15.23;;;11.13;;
75746;SDS011;64363;52.198;21.020;2022-10-16T08:18:04;15.52;;;10.82;;
75746;SDS011;64363;52.198;21.020;2022-10-16T08:20:30;14.35;;;9.93;;
75746;SDS011;64363;52.198;21.020;2022-10-16T08:22:58;14.05;;;10.50;;
75746;SDS011;64363;52.198;21.020;2022-10-16T08:25:25;16.52;;;10.50;;
75746;SDS011;64363;52.198;21.020;2022-10-16T08:27:51;15.18;;;9.88;;
75746;SDS011;64363;52.198;21.020;2022-10-16T08:30:19;15.65;;;10.75;;
75746;SDS011;64363;52.198;21.020;2022-10-16T08:32:46;16.10;;;10.55;;
75746;SDS011;64363;52.198;21.020;2022-10-16T08:35:12;15.32;;;10.68;;
75746;SDS011;64363;52.198;21.020;2022-10-16T08:37:39;16.60;;;10.80;;
75746;SDS011;64363;52.198;21.020;2022-10-16T08:40:06;14.10;;;10.95;;
75746;SDS011;64363;52.198;21.020;2022-10-16T08:43:00;15.13;;;11.43;;
75746;SDS011;64363;52.198;21.020;2022-10-16T08:45:38;15.27;;;10.55;;
75746;SDS011;64363;52.198;21.020;2022-10-16T08:48:27;17.42;;;9.68;;
75746;SDS011;64363;52.198;21.020;2022-10-16T08:51:01;14.38;;;10.07;;
75746;SDS011;64363;52.198;21.020;2022-10-16T08:53:29;15.20;;;9.73;;
75746;SDS011;64363;52.198;21.020;2022-10-16T08:56:01;17.02;;;10.27;;
75746;SDS011;64363;52.198;21.020;2022-10-16T08:58:28;15.63;;;10.98;;
75746;SDS011;64363;52.198;21.020;2022-10-16T09:00:56;16.55;;;10.70;;
75746;SDS011;64363;52.198;21.020;2022-10-16T09:08:50;13.45;;;10.02;;
75746;SDS011;64363;52.198;21.020;2022-10-16T09:22:45;13.13;;;9.00;;
75746;SDS011;64363;52.198;21.020;2022-10-16T09:25:15;13.75;;;9.52;;
75746;SDS011;64363;52.198;21.020;2022-10-16T09:27:46;16.10;;;10.32;;
75746;SDS011;64363;52.198;21.020;2022-10-16T09:30:18;12.65;;;8.60;;
75746;SDS011;64363;52.198;21.020;2022-10-16T09:32:46;13.32;;;9.57;;
75746;SDS011;64363;52.198;21.020;2022-10-16T09:35:19;11.85;;;8.70;;
75746;SDS011;64363;52.198;21.020;2022-10-16T09:37:48;12.93;;;10.20;;
75746;SDS011;64363;52.198;21.020;2022-10-16T09:40:29;14.27;;;9.88;;
75746;SDS011;64363;52.198;21.020;2022-10-16T09:43:02;14.82;;;9.40;;
75746;SDS011;64363;52.198;21.020;2022-10-16T09:45:42;14.30;;;9.95;;
75746;SDS011;64363;52.198;21.020;2022-10-16T09:48:12;14.07;;;9.48;;
75746;SDS011;64363;52.198;21.020;2022-10-16T09:50:38;14.88;;;10.13;;
75746;SDS011;64363;52.198;21.020;2022-10-16T09:53:05;12.80;;;9.38;;
75746;SDS011;64363;52.198;21.020;2022-10-16T09:55:35;13.10;;;9.18;;
75746;SDS011;64363;52.198;21.020;2022-10-16T09:58:01;15.05;;;10.00;;
75746;SDS011;64363;52.198;21.020;2022-10-16T10:00:27;12.90;;;9.70;;
75746;SDS011;64363;52.198;21.020;2022-10-16T10:02:55;15.70;;;10.43;;
75746;SDS011;64363;52.198;21.020;2022-10-16T10:05:21;13.85;;;9.32;;
75746;SDS011;64363;52.198;21.020;2022-10-16T10:07:53;12.18;;;8.82;;
75746;SDS011;64363;52.198;21.020;2022-10-16T10:10:25;12.93;;;9.38;;
75746;SDS011;64363;52.198;21.020;2022-10-16T10:12:51;11.75;;;8.35;;
75746;SDS011;64363;52.198;21.020;2022-10-16T10:15:18;13.63;;;9.10;;
75746;SDS011;64363;52.198;21.020;2022-10-16T10:17:47;13.93;;;9.18;;
75746;SDS011;64363;52.198;21.020;2022-10-16T10:20:22;12.32;;;9.10;;
75746;SDS011;64363;52.198;21.020;2022-10-16T10:22:57;12.38;;;9.18;;
75746;SDS011;64363;52.198;21.020;2022-10-16T10:28:16;12.05;;;8.80;;
75746;SDS011;64363;52.198;21.020;2022-10-16T10:31:06;14.23;;;8.15;;
75746;SDS011;64363;52.198;21.020;2022-10-16T10:33:46;11.35;;;9.15;;
75746;SDS011;64363;52.198;21.020;2022-10-16T10:39:15;15.68;;;8.48;;
75746;SDS011;64363;52.198;21.020;2022-10-16T10:53:36;14.57;;;8.32;;
75746;SDS011;64363;52.198;21.020;2022-10-16T10:56:03;12.88;;;9.70;;
75746;SDS011;64363;52.198;21.020;2022-10-16T10:58:57;12.52;;;8.32;;
75746;SDS011;64363;52.198;21.020;2022-10-16T11:01:53;16.20;;;10.60;;
75746;SDS011;64363;52.198;21.020;2022-10-16T11:07:32;12.73;;;8.63;;
75746;SDS011;64363;52.198;21.020;2022-10-16T11:10:05;10.55;;;8.05;;
75746;SDS011;64363;52.198;21.020;2022-10-16T11:12:42;12.80;;;8.73;;
75746;SDS011;64363;52.198;21.020;2022-10-16T11:15:32;12.98;;;8.20;;
75746;SDS011;64363;52.198;21.020;2022-10-16T11:18:03;15.48;;;8.57;;
75746;SDS011;64363;52.198;21.020;2022-10-16T11:20:34;16.80;;;8.50;;
75746;SDS011;64363;52.198;21.020;2022-10-16T11:26:19;13.23;;;8.35;;
75746;SDS011;64363;52.198;21.020;2022-10-16T11:28:50;11.52;;;7.30;;
75746;SDS011;64363;52.198;21.020;2022-10-16T11:34:29;11.55;;;8.65;;
75746;SDS011;64363;52.198;21.020;2022-10-16T11:39:29;11.30;;;7.35;;
75746;SDS011;64363;52.198;21.020;2022-10-16T11:42:07;10.85;;;7.85;;
75746;SDS011;64363;52.198;21.020;2022-10-16T11:44:55;12.93;;;8.60;;
75746;SDS011;64363;52.198;21.020;2022-10-16T11:47:27;9.95;;;7.68;;
75746;SDS011;64363;52.198;21.020;2022-10-16T11:50:20;11.23;;;7.90;;
75746;SDS011;64363;52.198;21.020;2022-10-16T11:52:52;10.77;;;7.53;;
75746;SDS011;64363;52.198;21.020;2022-10-16T11:55:44;10.95;;;8.00;;
75746;SDS011;64363;52.198;21.020;2022-10-16T12:01:19;11.75;;;8.07;;
75746;SDS011;64363;52.198;21.020;2022-10-16T12:06:43;10.77;;;8.35;;
75746;SDS011;64363;52.198;21.020;2022-10-16T12:09:14;10.10;;;7.80;;
75746;SDS011;64363;52.198;21.020;2022-10-16T12:11:47;12.32;;;8.23;;
75746;SDS011;64363;52.198;21.020;2022-10-16T12:16:50;10.55;;;7.53;;
75746;SDS011;64363;52.198;21.020;2022-10-16T12:19:25;11.68;;;8.00;;
75746;SDS011;64363;52.198;21.020;2022-10-16T12:21:55;13.63;;;8.10;;
75746;SDS011;64363;52.198;21.020;2022-10-16T12:24:35;12.32;;;7.65;;
75746;SDS011;64363;52.198;21.020;2022-10-16T12:27:04;11.80;;;8.07;;
75746;SDS011;64363;52.198;21.020;2022-10-16T12:32:05;11.30;;;8.07;;
75746;SDS011;64363;52.198;21.020;2022-10-16T12:34:49;11.68;;;9.50;;
75746;SDS011;64363;52.198;21.020;2022-10-16T12:37:19;10.05;;;7.60;;
75746;SDS011;64363;52.198;21.020;2022-10-16T12:39:48;12.23;;;8.20;;
75746;SDS011;64363;52.198;21.020;2022-10-16T12:42:49;10.57;;;8.25;;
75746;SDS011;64363;52.198;21.020;2022-10-16T12:47:56;11.10;;;8.02;;
75746;SDS011;64363;52.198;21.020;2022-10-16T12:50:36;11.82;;;8.27;;
75746;SDS011;64363;52.198;21.020;2022-10-16T12:53:04;12.20;;;8.20;;
75746;SDS011;64363;52.198;21.020;2022-10-16T13:01:21;11.60;;;8.02;;
75746;SDS011;64363;52.198;21.020;2022-10-16T13:03:58;11.40;;;8.38;;
75746;SDS011;64363;52.198;21.020;2022-10-16T13:09:17;10.20;;;7.50;;
75746;SDS011;64363;52.198;21.020;2022-10-16T13:20:33;11.93;;;7.82;;
75746;SDS011;64363;52.198;21.020;2022-10-16T13:23:19;11.63;;;7.88;;
75746;SDS011;64363;52.198;21.020;2022-10-16T13:28:57;10.27;;;6.88;;
75746;SDS011;64363;52.198;21.020;2022-10-16T13:31:24;13.32;;;7.93;;
75746;SDS011;64363;52.198;21.020;2022-10-16T13:33:51;10.57;;;7.47;;
75746;SDS011;64363;52.198;21.020;2022-10-16T13:36:33;10.65;;;7.40;;
75746;SDS011;64363;52.198;21.020;2022-10-16T13:41:36;8.32;;;6.70;;
75746;SDS011;64363;52.198;21.020;2022-10-16T13:44:01;11.55;;;7.07;;
75746;SDS011;64363;52.198;21.020;2022-10-16T13:46:27;10.80;;;7.63;;
75746;SDS011;64363;52.198;21.020;2022-10-16T13:48:58;10.13;;;6.70;;
75746;SDS011;64363;52.198;21.020;2022-10-16T13:51:31;10.07;;;7.93;;
75746;SDS011;64363;52.198;21.020;2022-10-16T13:53:58;11.32;;;7.45;;
75746;SDS011;64363;52.198;21.020;2022-10-16T13:56:28;10.65;;;6.60;;
75746;SDS011;64363;52.198;21.020;2022-10-16T13:59:02;12.32;;;7.25;;
75746;SDS011;64363;52.198;21.020;2022-10-16T14:06:32;10.50;;;7.50;;
75746;SDS011;64363;52.198;21.020;2022-10-16T14:09:05;10.38;;;7.60;;
75746;SDS011;64363;52.198;21.020;2022-10-16T14:14:01;12.40;;;7.60;;
75746;SDS011;64363;52.198;21.020;2022-10-16T14:16:29;12.10;;;7.55;;
75746;SDS011;64363;52.198;21.020;2022-10-16T14:19:00;10.38;;;7.00;;
75746;SDS011;64363;52.198;21.020;2022-10-16T14:21:29;10.80;;;7.53;;
75746;SDS011;64363;52.198;21.020;2022-10-16T14:23:55;10.80;;;7.38;;
75746;SDS011;64363;52.198;21.020;2022-10-16T14:26:27;11.93;;;8.02;;
75746;SDS011;64363;52.198;21.020;2022-10-16T14:31:58;10.27;;;7.30;;
75746;SDS011;64363;52.198;21.020;2022-10-16T14:34:33;12.23;;;7.45;;
75746;SDS011;64363;52.198;21.020;2022-10-16T14:37:01;9.00;;;7.15;;
75746;SDS011;64363;52.198;21.020;2022-10-16T14:39:36;12.35;;;8.10;;
75746;SDS011;64363;52.198;21.020;2022-10-16T14:42:02;11.35;;;7.43;;
75746;SDS011;64363;52.198;21.020;2022-10-16T14:44:28;10.57;;;7.45;;
75746;SDS011;64363;52.198;21.020;2022-10-16T14:46:57;12.23;;;8.20;;
75746;SDS011;64363;52.198;21.020;2022-10-16T14:49:32;12.00;;;7.78;;
75746;SDS011;64363;52.198;21.020;2022-10-16T14:52:08;10.90;;;7.68;;
75746;SDS011;64363;52.198;21.020;2022-10-16T14:54:35;10.73;;;6.60;;
75746;SDS011;64363;52.198;21.020;2022-10-16T14:57:01;13.95;;;8.20;;
75746;SDS011;64363;52.198;21.020;2022-10-16T14:59:37;9.45;;;7.20;;
75746;SDS011;64363;52.198;21.020;2022-10-16T15:04:46;12.55;;;8.23;;
75746;SDS011;64363;52.198;21.020;2022-10-16T15:07:12;9.27;;;7.38;;
75746;SDS011;64363;52.198;21.020;2022-10-16T15:09:38;10.32;;;7.82;;
75746;SDS011;64363;52.198;21.020;2022-10-16T15:12:03;14.88;;;7.53;;
75746;SDS011;64363;52.198;21.020;2022-10-16T15:14:29;10.75;;;8.25;;
75746;SDS011;64363;52.198;21.020;2022-10-16T15:16:55;10.10;;;7.72;;
75746;SDS011;64363;52.198;21.020;2022-10-16T15:19:21;13.48;;;8.40;;
75746;SDS011;64363;52.198;21.020;2022-10-16T15:21:47;11.25;;;8.50;;
75746;SDS011;64363;52.198;21.020;2022-10-16T15:24:13;11.40;;;8.23;;
75746;SDS011;64363;52.198;21.020;2022-10-16T15:26:39;12.90;;;8.25;;
75746;SDS011;64363;52.198;21.020;2022-10-16T15:29:05;11.10;;;7.85;;
75746;SDS011;64363;52.198;21.020;2022-10-16T15:31:31;8.93;;;7.57;;
75746;SDS011;64363;52.198;21.020;2022-10-16T15:33:58;13.35;;;8.95;;
75746;SDS011;64363;52.198;21.020;2022-10-16T15:36:29;12.23;;;8.70;;
75746;SDS011;64363;52.198;21.020;2022-10-16T15:38:56;14.30;;;9.40;;
75746;SDS011;64363;52.198;21.020;2022-10-16T15:41:22;13.63;;;8.90;;
75746;SDS011;64363;52.198;21.020;2022-10-16T15:43:48;11.38;;;8.02;;
75746;SDS011;64363;52.198;21.020;2022-10-16T15:46:17;13.70;;;8.52;;
75746;SDS011;64363;52.198;21.020;2022-10-16T15:48:44;14.02;;;9.13;;
75746;SDS011;64363;52.198;21.020;2022-10-16T15:51:10;12.10;;;7.60;;
75746;SDS011;64363;52.198;21.020;2022-10-16T15:53:35;11.73;;;8.73;;
75746;SDS011;64363;52.198;21.020;2022-10-16T15:56:02;12.57;;;8.43;;
75746;SDS011;64363;52.198;21.020;2022-10-16T15:58:28;12.38;;;8.73;;
75746;SDS011;64363;52.198;21.020;2022-10-16T16:00:58;13.57;;;7.82;;
75746;SDS011;64363;52.198;21.020;2022-10-16T16:03:29;11.10;;;8.57;;
75746;SDS011;64363;52.198;21.020;2022-10-16T16:05:55;13.10;;;9.13;;
75746;SDS011;64363;52.198;21.020;2022-10-16T16:08:22;12.93;;;8.57;;
75746;SDS011;64363;52.198;21.020;2022-10-16T16:11:00;12.57;;;8.70;;
75746;SDS011;64363;52.198;21.020;2022-10-16T16:13:28;13.23;;;8.88;;
75746;SDS011;64363;52.198;21.020;2022-10-16T16:15:54;15.73;;;9.77;;
75746;SDS011;64363;52.198;21.020;2022-10-16T16:18:20;12.88;;;9.23;;
75746;SDS011;64363;52.198;21.020;2022-10-16T16:20:46;14.00;;;9.02;;